Time;durP1;ratioP1;P1;durP2;ratioP2;P2;SDS_P1;SDS_P2;PMS_P1;PMS_P2;Temp;Humidity;BMP_temperature;BMP_pressure;BME280_temperature;BME280_humidity;BME280_pressure;Samples;Min_cycle;Max_cycle;Signal;HPM_P1;HPM_P2
2021/01/04 00:00:05;;;;;;;11.80;6.80;;;3.60;99.90;;;;;;5091603;28;20073;-68
2021/01/04 00:03:04;;;;;;;8.05;6.13;;;3.60;99.90;;;;;;5083485;28;20024;-68
2021/01/04 00:05:47;;;;;;;10.52;6.35;;;3.70;99.90;;;;;;5080140;28;20158;-68
2021/01/04 00:08:31;;;;;;;13.82;6.80;;;3.60;99.90;;;;;;5094071;28;20050;-68
2021/01/04 00:11:17;;;;;;;8.57;6.53;;;3.70;99.90;;;;;;5093428;28;20028;-68
2021/01/04 00:14:23;;;;;;;10.05;6.50;;;3.70;99.90;;;;;;5093980;28;20031;-68
2021/01/04 00:17:02;;;;;;;11.98;6.88;;;3.60;99.90;;;;;;5093216;28;20052;-68
2021/01/04 00:19:53;;;;;;;10.68;6.93;;;3.60;99.90;;;;;;5087509;28;20097;-69
2021/01/04 00:22:22;;;;;;;;;;;3.70;99.90;;;;;;5082874;28;20495;-66
2021/01/04 00:25:05;;;;;;;10.07;6.72;;;3.70;99.90;;;;;;5093002;28;19915;-69
2021/01/04 00:27:41;;;;;;;7.40;5.35;;;3.70;99.90;;;;;;5093473;28;20067;-69
2021/01/04 00:30:23;;;;;;;11.65;7.00;;;3.70;99.90;;;;;;5094271;28;20439;-67
2021/01/04 00:32:50;;;;;;;8.45;6.15;;;3.70;99.90;;;;;;5080809;28;20523;-68
2021/01/04 00:35:19;;;;;;;10.15;6.20;;;3.70;99.90;;;;;;5093288;28;20541;-67
2021/01/04 00:38:21;;;;;;;11.70;7.72;;;3.70;99.90;;;;;;5092685;28;20063;-68
2021/01/04 00:41:35;;;;;;;11.00;6.85;;;3.70;99.90;;;;;;5093477;28;20117;-68
2021/01/04 00:44:06;;;;;;;9.82;6.60;;;3.70;99.90;;;;;;5079778;28;20058;-68
2021/01/04 00:47:03;;;;;;;9.98;7.13;;;3.70;99.90;;;;;;5092796;28;20020;-68
2021/01/04 00:49:33;;;;;;;8.75;6.75;;;3.80;99.90;;;;;;5093377;28;20028;-68
2021/01/04 00:52:28;;;;;;;12.90;6.43;;;3.80;99.90;;;;;;5093011;28;20032;-68
2021/01/04 00:55:20;;;;;;;7.63;5.97;;;3.80;99.90;;;;;;5093917;28;20047;-68
2021/01/04 00:58:08;;;;;;;10.25;6.57;;;3.80;99.90;;;;;;5093380;28;20497;-68
2021/01/04 01:00:50;;;;;;;9.35;6.93;;;3.70;99.90;;;;;;5092558;28;20321;-68
2021/01/04 01:03:34;;;;;;;10.73;6.78;;;3.80;99.90;;;;;;5078521;28;20115;-68
2021/01/04 01:06:23;;;;;;;11.40;6.55;;;3.80;99.90;;;;;;5092697;28;20375;-68
2021/01/04 01:08:54;;;;;;;8.63;6.57;;;3.70;99.90;;;;;;5093055;28;20112;-68
2021/01/04 01:11:51;;;;;;;7.38;6.05;;;3.70;99.90;;;;;;5091892;28;20545;-68
2021/01/04 01:15:03;;;;;;;9.80;6.00;;;3.80;99.90;;;;;;5091978;28;20036;-68
2021/01/04 01:18:01;;;;;;;8.98;5.80;;;3.70;99.90;;;;;;5073528;28;20040;-68
2021/01/04 01:20:27;;;;;;;10.88;6.63;;;3.80;99.90;;;;;;5091322;28;20127;-68
2021/01/04 01:22:53;;;;;;;9.35;6.82;;;3.70;99.90;;;;;;5093037;28;20103;-68
2021/01/04 01:25:25;;;;;;;10.05;6.68;;;3.70;99.90;;;;;;5092328;28;20455;-68
2021/01/04 01:28:22;;;;;;;7.05;6.00;;;3.70;99.90;;;;;;5092025;28;20073;-68
2021/01/04 01:31:20;;;;;;;10.02;7.10;;;3.80;99.90;;;;;;5092552;28;20152;-68
2021/01/04 01:33:49;;;;;;;8.52;5.88;;;3.70;99.90;;;;;;5091984;28;20027;-69
2021/01/04 01:36:42;;;;;;;7.25;5.65;;;3.70;99.90;;;;;;5092082;28;20461;-68
2021/01/04 01:39:32;;;;;;;8.05;4.97;;;3.60;99.90;;;;;;5092423;28;20081;-68
2021/01/04 01:42:39;;;;;;;7.40;5.07;;;3.70;99.90;;;;;;5092022;28;20016;-70
2021/01/04 01:45:07;;;;;;;7.72;5.25;;;3.70;99.90;;;;;;5000700;28;20029;-68
2021/01/04 01:47:44;;;;;;;7.00;5.38;;;3.70;99.90;;;;;;5009457;28;20049;-68
2021/01/04 01:50:26;;;;;;;12.10;6.95;;;3.70;99.90;;;;;;5055695;28;20119;-68
2021/01/04 01:53:34;;;;;;;6.15;5.45;;;3.60;99.90;;;;;;5092088;28;20306;-69
2021/01/04 01:56:23;;;;;;;6.13;5.43;;;3.60;99.90;;;;;;5091117;28;20068;-69
2021/01/04 01:58:57;;;;;;;7.88;6.03;;;3.60;99.90;;;;;;5092236;28;20032;-69
2021/01/04 02:01:42;;;;;;;7.22;5.63;;;3.60;99.90;;;;;;5091286;28;20081;-68
2021/01/04 02:04:29;;;;;;;8.25;6.05;;;3.60;99.90;;;;;;5080782;28;20032;-70
2021/01/04 02:07:12;;;;;;;7.43;6.30;;;3.60;99.90;;;;;;5078839;28;20036;-68
2021/01/04 02:09:51;;;;;;;12.63;6.05;;;3.50;99.90;;;;;;5074851;28;20039;-68
2021/01/04 02:12:40;;;;;;;12.98;6.65;;;3.60;99.90;;;;;;5082642;28;20099;-68
2021/01/04 02:15:16;;;;;;;9.20;6.35;;;3.50;99.90;;;;;;5078446;28;20093;-68
2021/01/04 02:18:01;;;;;;;7.18;6.20;;;3.60;99.90;;;;;;5077688;28;20024;-68
2021/01/04 02:20:56;;;;;;;8.25;6.53;;;3.60;99.90;;;;;;5090852;28;20500;-69
2021/01/04 02:23:43;;;;;;;8.95;6.10;;;3.60;99.90;;;;;;5078680;28;20072;-68
2021/01/04 02:26:25;;;;;;;6.90;5.85;;;3.60;99.90;;;;;;5091489;28;20034;-69
2021/01/04 02:29:21;;;;;;;10.15;5.70;;;3.60;99.90;;;;;;5091156;28;20050;-69
2021/01/04 02:31:51;;;;;;;7.95;6.32;;;3.50;99.90;;;;;;5090971;28;20057;-68
2021/01/04 02:34:19;;;;;;;;;;;3.50;99.90;;;;;;5091771;28;20039;-69
2021/01/04 02:36:53;;;;;;;7.13;5.28;;;3.50;99.90;;;;;;5091399;28;19934;-69
2021/01/04 02:39:19;;;;;;;7.45;6.43;;;3.50;99.90;;;;;;5088916;28;20020;-68
2021/01/04 02:42:17;;;;;;;7.13;5.47;;;3.40;99.90;;;;;;5079026;28;20031;-68
2021/01/04 02:44:44;;;;;;;7.97;5.75;;;3.40;99.90;;;;;;5066990;28;20032;-68
2021/01/04 02:47:25;;;;;;;8.20;5.53;;;3.40;99.90;;;;;;5091251;28;20036;-68
2021/01/04 02:50:09;;;;;;;9.63;6.43;;;3.40;99.90;;;;;;5091037;28;20058;-68
2021/01/04 02:52:52;;;;;;;8.45;5.63;;;3.50;99.90;;;;;;5090249;28;20494;-69
2021/01/04 02:55:42;;;;;;;9.07;6.22;;;3.40;99.90;;;;;;5078053;28;20040;-67
2021/01/04 02:58:29;;;;;;;7.82;6.35;;;3.40;99.90;;;;;;5050930;28;20044;-69
2021/01/04 03:01:03;;;;;;;9.10;6.10;;;3.40;99.90;;;;;;5091010;28;20031;-67
2021/01/04 03:03:29;;;;;;;7.60;5.80;;;3.40;99.90;;;;;;5090601;28;20020;-67
2021/01/04 03:05:59;;;;;;;7.97;6.25;;;3.40;99.90;;;;;;5090223;28;20021;-67
2021/01/04 03:08:25;;;;;;;11.10;6.00;;;3.40;99.90;;;;;;5090297;28;20040;-67
2021/01/04 03:10:52;;;;;;;7.60;5.40;;;3.40;99.90;;;;;;5090669;28;20062;-69
2021/01/04 03:13:51;;;;;;;7.13;5.93;;;3.40;99.90;;;;;;5089224;28;20020;-67
2021/01/04 03:16:28;;;;;;;7.47;5.88;;;3.50;99.90;;;;;;5081540;28;20089;-68
2021/01/04 03:18:58;;;;;;;9.98;6.60;;;3.40;99.90;;;;;;5090511;28;20058;-67
2021/01/04 03:21:25;;;;;;;9.13;5.63;;;3.40;99.90;;;;;;5090039;28;20488;-67
2021/01/04 03:23:52;;;;;;;7.78;5.72;;;3.30;99.90;;;;;;5090734;28;20097;-68
2021/01/04 03:26:32;;;;;;;5.95;5.18;;;3.40;99.90;;;;;;5090059;28;20020;-68
2021/01/04 03:28:57;;;;;;;8.13;6.07;;;3.30;99.90;;;;;;5090759;28;20038;-68
2021/01/04 03:31:23;;;;;;;6.28;5.63;;;3.40;99.90;;;;;;5090394;28;20024;-68
2021/01/04 03:33:49;;;;;;;7.78;6.00;;;3.40;99.90;;;;;;5090822;28;20098;-67
2021/01/04 03:36:15;;;;;;;7.93;5.70;;;3.40;99.90;;;;;;5094822;28;20048;-68
2021/01/04 03:38:41;;;;;;;7.00;5.50;;;3.40;99.90;;;;;;5095129;28;20032;-69
2021/01/04 03:41:07;;;;;;;8.57;5.43;;;3.40;99.90;;;;;;5088218;28;20101;-68
2021/01/04 03:43:33;;;;;;;8.80;6.20;;;3.50;99.90;;;;;;5074360;28;20029;-68
2021/01/04 03:45:59;;;;;;;7.78;5.47;;;3.50;99.90;;;;;;5074688;28;20035;-68
2021/01/04 03:48:25;;;;;;;6.90;5.70;;;3.50;99.90;;;;;;5073914;28;20053;-68
2021/01/04 03:50:51;;;;;;;7.50;5.95;;;3.50;99.90;;;;;;5074055;28;20107;-68
2021/01/04 03:53:17;;;;;;;6.45;5.50;;;3.50;99.90;;;;;;5074552;28;20017;-68
2021/01/04 03:55:43;;;;;;;7.35;6.35;;;3.50;99.90;;;;;;5073574;28;20032;-68
2021/01/04 03:58:10;;;;;;;6.55;5.22;;;3.50;99.90;;;;;;5073828;28;20093;-68
2021/01/04 04:00:37;;;;;;;10.25;5.82;;;3.50;99.90;;;;;;5073677;28;20388;-68
2021/01/04 04:03:04;;;;;;;8.05;6.15;;;3.50;99.90;;;;;;5073034;28;20490;-68
2021/01/04 04:05:31;;;;;;;11.80;6.57;;;3.50;99.90;;;;;;5073957;28;20085;-68
2021/01/04 04:07:57;;;;;;;6.47;5.82;;;3.50;99.90;;;;;;5073931;28;20033;-68
2021/01/04 04:10:22;;;;;;;7.55;5.60;;;3.60;99.90;;;;;;5072987;28;20538;-68
2021/01/04 04:12:49;;;;;;;7.55;5.38;;;3.60;99.90;;;;;;5075097;28;20056;-68
2021/01/04 04:15:16;;;;;;;7.60;5.32;;;3.50;99.90;;;;;;5075426;28;20389;-69
2021/01/04 04:17:42;;;;;;;6.88;6.18;;;3.50;99.90;;;;;;5093972;28;20044;-68
2021/01/04 04:20:18;;;;;;;6.53;5.07;;;3.60;99.90;;;;;;5094015;28;20105;-68
2021/01/04 04:22:46;;;;;;;6.88;5.65;;;3.60;99.90;;;;;;5093420;28;20464;-68
2021/01/04 04:25:14;;;;;;;6.80;6.05;;;3.60;99.90;;;;;;5093835;28;20035;-68
2021/01/04 04:27:39;;;;;;;8.38;6.45;;;3.60;99.90;;;;;;5093856;28;20506;-68
2021/01/04 04:30:08;;;;;;;8.38;6.03;;;3.60;99.90;;;;;;5093440;28;20163;-68
2021/01/04 04:32:34;;;;;;;6.63;5.60;;;3.60;99.90;;;;;;5093749;28;20107;-68
2021/01/04 04:35:00;;;;;;;6.05;5.45;;;3.70;99.90;;;;;;5093906;28;20028;-68
2021/01/04 04:37:25;;;;;;;7.55;5.38;;;3.70;99.90;;;;;;5092691;28;20398;-69
2021/01/04 04:39:51;;;;;;;9.05;6.32;;;3.70;99.90;;;;;;5093628;28;20405;-69
2021/01/04 04:42:20;;;;;;;6.60;5.70;;;3.70;99.90;;;;;;5093177;28;20047;-68
2021/01/04 04:45:00;;;;;;;5.97;5.30;;;3.70;99.90;;;;;;5092701;28;20044;-68
2021/01/04 04:48:10;;;;;;;6.03;5.43;;;3.70;99.90;;;;;;5092847;28;20133;-68
2021/01/04 04:51:13;;;;;;;7.25;5.38;;;3.70;99.90;;;;;;5092431;28;20487;-68
2021/01/04 04:54:06;;;;;;;7.78;5.70;;;3.70;99.90;;;;;;5071412;28;20072;-69
2021/01/04 04:56:35;;;;;;;6.40;5.10;;;3.70;99.90;;;;;;5093093;28;20073;-68
2021/01/04 04:59:11;;;;;;;7.43;6.00;;;3.60;99.90;;;;;;5092590;28;20020;-68
2021/01/04 05:01:55;;;;;;;7.35;6.05;;;3.70;99.90;;;;;;5093018;28;20464;-68
2021/01/04 05:04:33;;;;;;;8.20;6.07;;;3.70;99.90;;;;;;5091604;28;20367;-68
2021/01/04 05:07:02;;;;;;;6.10;5.03;;;3.70;99.90;;;;;;5093142;28;20028;-68
2021/01/04 05:09:55;;;;;;;7.00;5.00;;;3.80;99.90;;;;;;5092295;28;20097;-68
2021/01/04 05:12:51;;;;;;;5.95;5.03;;;3.80;99.90;;;;;;5092375;28;20411;-68
2021/01/04 05:15:48;;;;;;;5.75;4.68;;;3.80;99.90;;;;;;5075212;28;20020;-68
2021/01/04 05:18:22;;;;;;;10.02;5.22;;;3.80;99.90;;;;;;5092938;28;20036;-68
2021/01/04 05:21:03;;;;;;;6.10;4.72;;;3.80;99.90;;;;;;5078017;28;20043;-68
2021/01/04 05:23:48;;;;;;;8.65;5.45;;;3.80;99.90;;;;;;5092877;28;20379;-69
2021/01/04 05:26:31;;;;;;;7.35;5.65;;;3.80;99.90;;;;;;5091382;28;20445;-68
2021/01/04 05:29:09;;;;;;;9.75;6.05;;;3.80;99.90;;;;;;5093039;28;20103;-68
2021/01/04 05:31:43;;;;;;;6.95;5.40;;;3.80;99.90;;;;;;5092328;28;20521;-68
2021/01/04 05:34:25;;;;;;;10.35;5.03;;;3.90;99.90;;;;;;5091916;28;20024;-68
2021/01/04 05:37:05;;;;;;;8.70;5.72;;;3.80;99.90;;;;;;5092405;28;20479;-68
2021/01/04 05:39:49;;;;;;;5.70;5.10;;;3.80;99.90;;;;;;5078568;28;20020;-68
2021/01/04 05:42:26;;;;;;;8.73;5.07;;;3.80;99.90;;;;;;5092143;28;20039;-70
2021/01/04 05:45:01;;;;;;;8.68;5.03;;;3.90;99.90;;;;;;5092684;28;20031;-68
2021/01/04 05:47:40;;;;;;;8.55;5.80;;;3.90;99.90;;;;;;5091588;28;20024;-69
2021/01/04 05:50:17;;;;;;;6.53;5.70;;;3.80;99.90;;;;;;5092649;28;20031;-69
2021/01/04 05:52:42;;;;;;;6.80;5.15;;;3.90;99.90;;;;;;5092025;28;20016;-68
2021/01/04 05:55:11;;;;;;;7.95;5.03;;;3.90;99.90;;;;;;5091421;28;20020;-68
2021/01/04 05:57:49;;;;;;;7.32;5.47;;;3.90;99.90;;;;;;5091487;28;20075;-68
2021/01/04 06:00:32;;;;;;;7.40;5.20;;;3.90;99.90;;;;;;5092031;28;20020;-68
2021/01/04 06:03:24;;;;;;;7.80;5.78;;;3.90;99.90;;;;;;5091440;28;20032;-68
2021/01/04 06:05:52;;;;;;;8.60;5.13;;;3.80;99.90;;;;;;5089142;28;20075;-68
2021/01/04 06:08:25;;;;;;;8.13;5.68;;;3.80;99.90;;;;;;5091084;28;20016;-68
2021/01/04 06:11:03;;;;;;;6.85;5.28;;;3.80;99.90;;;;;;5092058;28;20020;-68
2021/01/04 06:13:38;;;;;;;8.63;5.65;;;3.80;99.90;;;;;;5089529;28;20551;-68
2021/01/04 06:16:25;;;;;;;8.52;5.57;;;3.80;99.90;;;;;;5070771;28;20158;-68
2021/01/04 06:18:54;;;;;;;11.18;6.22;;;3.80;99.90;;;;;;5071241;28;20107;-68
2021/01/04 06:21:40;;;;;;;8.13;5.68;;;3.80;99.90;;;;;;5085960;28;20043;-68
2021/01/04 06:24:06;;;;;;;9.77;5.75;;;3.80;99.90;;;;;;5070256;28;20025;-68
2021/01/04 06:26:31;;;;;;;7.28;5.90;;;3.70;99.90;;;;;;5075898;28;20020;-67
2021/01/04 06:28:59;;;;;;;7.88;5.55;;;3.80;99.90;;;;;;5070740;28;20025;-69
2021/01/04 06:31:31;;;;;;;9.10;5.78;;;3.80;99.90;;;;;;5071798;28;20020;-69
2021/01/04 06:34:00;;;;;;;9.80;5.75;;;3.80;99.90;;;;;;5072427;28;20036;-68
2021/01/04 06:36:26;;;;;;;8.02;5.93;;;3.80;99.90;;;;;;5071356;28;20127;-69
2021/01/04 06:38:52;;;;;;;6.82;5.45;;;3.80;99.90;;;;;;5071054;28;20024;-69
2021/01/04 06:41:28;;;;;;;8.07;5.32;;;3.80;99.90;;;;;;5070119;28;20085;-68
2021/01/04 06:43:54;;;;;;;7.65;5.53;;;3.80;99.90;;;;;;5070308;28;20036;-67
2021/01/04 06:46:19;;;;;;;8.32;5.90;;;3.80;99.90;;;;;;5072948;28;20046;-67
2021/01/04 06:48:57;;;;;;;7.03;5.55;;;3.80;99.90;;;;;;5070604;28;20051;-68
2021/01/04 06:51:55;;;;;;;7.55;5.32;;;3.90;99.90;;;;;;5086043;28;20036;-67
2021/01/04 06:54:42;;;;;;;7.57;5.47;;;3.90;99.90;;;;;;5087361;28;20024;-67
2021/01/04 06:57:37;;;;;;;8.20;5.97;;;3.90;99.90;;;;;;5088364;28;20028;-67
2021/01/04 07:00:02;;;;;;;10.00;5.50;;;3.90;99.90;;;;;;5088080;28;20533;-68
2021/01/04 07:03:01;;;;;;;7.32;5.68;;;3.90;99.90;;;;;;5084668;28;20032;-67
2021/01/04 07:05:46;;;;;;;7.35;5.28;;;3.90;99.90;;;;;;5085724;28;20448;-67
2021/01/04 07:08:48;;;;;;;6.40;5.78;;;3.80;99.90;;;;;;5085567;28;20093;-67
2021/01/04 07:11:26;;;;;;;8.23;5.70;;;3.80;99.90;;;;;;5086491;28;20108;-67
2021/01/04 07:14:14;;;;;;;6.95;5.30;;;3.90;99.90;;;;;;5087147;28;20024;-66
2021/01/04 07:17:02;;;;;;;9.70;5.60;;;3.80;99.90;;;;;;5088137;28;20042;-68
2021/01/04 07:19:59;;;;;;;8.10;6.28;;;3.90;99.90;;;;;;5086668;28;20077;-67
2021/01/04 07:22:54;;;;;;;13.68;5.63;;;3.90;99.90;;;;;;5079399;28;20046;-67
2021/01/04 07:25:37;;;;;;;9.82;5.57;;;3.90;99.90;;;;;;5081502;28;20036;-67
2021/01/04 07:28:30;;;;;;;7.50;5.28;;;3.90;99.90;;;;;;5088746;28;20024;-68
2021/01/04 07:31:02;;;;;;;7.20;5.30;;;3.80;99.90;;;;;;5088555;28;20076;-67
2021/01/04 07:33:33;;;;;;;13.23;5.47;;;3.80;99.90;;;;;;5086479;28;20586;-68
2021/01/04 07:36:10;;;;;;;9.10;5.47;;;3.90;99.90;;;;;;5087257;28;20043;-67
2021/01/04 07:38:59;;;;;;;7.20;5.53;;;3.90;99.90;;;;;;5088122;28;20463;-68
2021/01/04 07:41:39;;;;;;;8.85;5.47;;;3.90;99.90;;;;;;5056265;28;20394;-67
2021/01/04 07:44:29;;;;;;;8.38;5.20;;;3.80;99.90;;;;;;5087877;28;20087;-68
2021/01/04 07:47:26;;;;;;;6.03;4.70;;;3.80;99.90;;;;;;5084916;28;20036;-68
2021/01/04 07:50:22;;;;;;;9.80;5.57;;;3.80;99.90;;;;;;5087865;28;20588;-68
2021/01/04 07:52:50;;;;;;;6.25;4.78;;;3.90;99.90;;;;;;5078547;28;20027;-68
2021/01/04 07:55:25;;;;;;;6.82;5.20;;;3.90;99.90;;;;;;5069796;28;20116;-68
2021/01/04 07:58:05;;;;;;;7.68;5.85;;;3.90;99.90;;;;;;5077867;28;20025;-68
2021/01/04 08:00:46;;;;;;;8.00;5.55;;;3.90;99.90;;;;;;5070260;28;20025;-68
2021/01/04 08:04:06;;;;;;;5.97;5.03;;;3.90;99.90;;;;;;5077844;28;20048;-69
2021/01/04 08:07:03;;;;;;;6.95;5.60;;;3.90;99.90;;;;;;5047677;28;20025;-68
2021/01/04 08:09:53;;;;;;;7.47;5.00;;;3.90;99.90;;;;;;5037024;28;20114;-68
2021/01/04 08:12:49;;;;;;;5.93;5.20;;;3.90;99.90;;;;;;5070883;28;20035;-68
2021/01/04 08:15:23;;;;;;;7.00;5.28;;;3.90;99.90;;;;;;5072516;28;20060;-68
2021/01/04 08:17:57;;;;;;;7.78;5.55;;;3.90;99.90;;;;;;5090849;28;20119;-66
2021/01/04 08:20:23;;;;;;;10.43;6.65;;;3.90;99.90;;;;;;5074824;28;20045;-68
2021/01/04 08:23:09;;;;;;;7.15;5.32;;;3.90;99.90;;;;;;5093076;28;20060;-68
2021/01/04 08:25:34;;;;;;;8.80;5.45;;;3.90;99.90;;;;;;5092340;28;20434;-68
2021/01/04 08:28:13;;;;;;;8.93;5.38;;;3.90;99.90;;;;;;5084315;28;20016;-68
2021/01/04 08:31:04;;;;;;;8.32;5.53;;;4.00;99.90;;;;;;5087581;28;20088;-69
2021/01/04 08:33:47;;;;;;;5.63;4.95;;;3.90;99.90;;;;;;5064924;28;20055;-67
2021/01/04 08:36:23;;;;;;;8.65;4.80;;;3.90;99.90;;;;;;5073597;28;20093;-68
2021/01/04 08:38:50;;;;;;;6.55;4.95;;;4.00;99.90;;;;;;5075004;28;20036;-68
2021/01/04 08:41:19;;;;;;;8.50;5.40;;;4.00;99.90;;;;;;5076568;28;20012;-68
2021/01/04 08:43:46;;;;;;;10.10;6.03;;;4.10;99.90;;;;;;5073542;28;20063;-68
2021/01/04 08:46:29;;;;;;;6.00;4.95;;;4.00;99.90;;;;;;5090653;28;20027;-68
2021/01/04 08:48:59;;;;;;;6.07;4.85;;;4.10;99.90;;;;;;5094677;28;20081;-67
2021/01/04 08:51:24;;;;;;;7.23;5.00;;;4.10;99.90;;;;;;5093651;28;20016;-66
2021/01/04 08:54:02;;;;;;;8.50;5.28;;;4.10;99.90;;;;;;5094451;28;20379;-67
2021/01/04 08:56:34;;;;;;;13.30;5.78;;;4.10;99.90;;;;;;5094405;28;20169;-68
2021/01/04 08:59:21;;;;;;;10.15;5.60;;;4.20;99.90;;;;;;5088218;28;20031;-68
2021/01/04 09:01:59;;;;;;;8.50;5.35;;;4.20;99.90;;;;;;5082746;28;20483;-68
2021/01/04 09:04:36;;;;;;;7.88;5.40;;;4.20;99.90;;;;;;5075590;28;20028;-69
2021/01/04 09:07:21;;;;;;;7.85;5.90;;;4.20;99.90;;;;;;5075949;28;20029;-68
2021/01/04 09:10:08;;;;;;;11.65;7.55;;;4.20;99.90;;;;;;5078325;28;20016;-69
2021/01/04 09:12:41;;;;;;;7.60;5.82;;;4.20;99.90;;;;;;5093075;28;20437;-68
2021/01/04 09:15:19;;;;;;;8.60;6.30;;;4.20;99.90;;;;;;5079734;28;20029;-68
2021/01/04 09:18:09;;;;;;;9.43;5.68;;;4.30;99.90;;;;;;5093717;28;20039;-68
2021/01/04 09:20:59;;;;;;;7.72;5.95;;;4.20;99.90;;;;;;5094025;28;20044;-67
2021/01/04 09:23:28;;;;;;;6.75;6.05;;;4.20;99.90;;;;;;5094493;28;20063;-68
2021/01/04 09:25:58;;;;;;;8.63;6.13;;;4.20;99.90;;;;;;5096314;28;20024;-68
2021/01/04 09:28:24;;;;;;;10.97;6.60;;;4.20;99.90;;;;;;5097466;28;20020;-68
2021/01/04 09:30:51;;;;;;;9.20;6.15;;;4.10;99.90;;;;;;5091458;28;20087;-68
2021/01/04 09:33:20;;;;;;;8.98;6.43;;;4.10;99.90;;;;;;5089925;28;20046;-68
2021/01/04 09:35:47;;;;;;;6.60;5.88;;;4.10;99.90;;;;;;5081632;28;20075;-68
2021/01/04 09:38:22;;;;;;;9.18;5.68;;;4.20;99.90;;;;;;5072852;28;20029;-68
2021/01/04 09:41:02;;;;;;;10.52;6.43;;;4.10;99.90;;;;;;5080871;28;20028;-68
2021/01/04 09:43:30;;;;;;;7.95;6.20;;;4.10;99.90;;;;;;5090372;28;20067;-68
2021/01/04 09:46:17;;;;;;;8.20;6.25;;;4.10;99.90;;;;;;5087581;28;20124;-67
2021/01/04 09:48:56;;;;;;;7.28;6.18;;;4.10;99.90;;;;;;5090232;28;20028;-67
2021/01/04 09:51:31;;;;;;;9.98;5.78;;;4.10;99.90;;;;;;5088289;28;20486;-67
2021/01/04 09:54:02;;;;;;;9.45;6.30;;;4.20;99.90;;;;;;5083810;28;20038;-67
2021/01/04 09:56:38;;;;;;;8.38;5.93;;;4.20;99.90;;;;;;5072606;28;20380;-67
2021/01/04 09:59:20;;;;;;;7.60;5.53;;;4.20;99.90;;;;;;5087108;28;20030;-67
2021/01/04 10:02:00;;;;;;;12.15;5.45;;;4.20;99.90;;;;;;5089148;28;20039;-67
2021/01/04 10:04:31;;;;;;;7.15;5.00;;;4.30;99.90;;;;;;5072425;28;20020;-67
2021/01/04 10:06:59;;;;;;;6.47;5.53;;;4.30;99.90;;;;;;5071763;28;20078;-67
2021/01/04 10:09:29;;;;;;;7.85;5.90;;;4.30;99.90;;;;;;5072236;28;20025;-66
2021/01/04 10:11:55;;;;;;;9.43;5.63;;;4.30;99.90;;;;;;5077767;28;20092;-67
2021/01/04 10:14:20;;;;;;;8.73;5.72;;;4.30;99.90;;;;;;5088295;28;20417;-66
2021/01/04 10:16:51;;;;;;;9.82;5.60;;;4.30;99.90;;;;;;5084391;28;20068;-67
2021/01/04 10:19:22;;;;;;;;;;;4.40;99.90;;;;;;5090210;28;20105;-67
2021/01/04 10:22:11;;;;;;;13.88;5.38;;;4.40;99.90;;;;;;5088973;28;20090;-67
2021/01/04 10:24:45;;;;;;;9.60;5.35;;;4.40;99.90;;;;;;5071796;28;20075;-67
2021/01/04 10:27:16;;;;;;;10.18;6.15;;;4.50;99.90;;;;;;5071815;28;20078;-67
2021/01/04 10:29:44;;;;;;;7.85;4.78;;;4.50;99.90;;;;;;5071669;28;20024;-67
2021/01/04 10:32:32;;;;;;;6.35;5.38;;;4.50;99.90;;;;;;5072227;28;20165;-67
2021/01/04 10:34:58;;;;;;;7.30;5.45;;;4.50;99.90;;;;;;5071831;28;20040;-67
2021/01/04 10:37:50;;;;;;;7.38;5.75;;;4.50;99.90;;;;;;5071099;28;20040;-67
2021/01/04 10:40:19;;;;;;;6.72;5.60;;;4.50;99.90;;;;;;5071701;28;20123;-67
2021/01/04 10:42:47;;;;;;;7.93;5.10;;;4.50;99.90;;;;;;5070791;28;20040;-67
2021/01/04 10:45:19;;;;;;;5.75;4.65;;;4.50;99.90;;;;;;5080864;28;20116;-67
2021/01/04 10:47:51;;;;;;;7.07;5.15;;;4.50;99.90;;;;;;5091998;28;20026;-67
2021/01/04 10:50:34;;;;;;;6.95;4.82;;;4.50;99.90;;;;;;5091633;28;20020;-67
2021/01/04 10:53:05;;;;;;;8.70;5.70;;;4.40;99.90;;;;;;5092086;28;20024;-67
2021/01/04 10:55:35;;;;;;;4.90;4.25;;;4.40;99.90;;;;;;5091717;28;20028;-66
2021/01/04 10:58:25;;;;;;;5.32;4.68;;;4.50;99.90;;;;;;5091200;28;20032;-67
2021/01/04 11:00:57;;;;;;;6.20;4.80;;;4.40;99.90;;;;;;5092184;28;20078;-67
2021/01/04 11:03:23;;;;;;;6.43;4.40;;;4.50;99.90;;;;;;5090764;28;20250;-67
2021/01/04 11:05:49;;;;;;;4.53;4.13;;;4.50;99.90;;;;;;5092461;28;20035;-67
2021/01/04 11:08:29;;;;;;;8.70;4.72;;;4.50;99.90;;;;;;5077479;28;20025;-67
2021/01/04 11:11:34;;;;;;;5.22;4.13;;;4.40;99.90;;;;;;5091191;28;20357;-67
2021/01/04 11:14:17;;;;;;;6.60;4.13;;;4.50;99.90;;;;;;5072767;28;20028;-67
2021/01/04 11:16:51;;;;;;;7.70;4.53;;;4.40;99.90;;;;;;5086412;28;20036;-67
2021/01/04 11:19:33;;;;;;;5.53;4.22;;;4.40;99.90;;;;;;5090973;28;20044;-67
2021/01/04 11:22:09;;;;;;;5.00;4.10;;;4.30;99.90;;;;;;5091272;28;20418;-67
2021/01/04 11:24:35;;;;;;;4.68;3.72;;;4.30;99.90;;;;;;5090725;28;20024;-68
2021/01/04 11:27:00;;;;;;;6.55;4.80;;;4.30;99.90;;;;;;5091723;28;20123;-69
2021/01/04 11:29:26;;;;;;;7.55;5.10;;;4.30;99.90;;;;;;5091441;28;20528;-69
2021/01/04 11:31:51;;;;;;;4.70;4.30;;;4.30;99.90;;;;;;5091251;28;20028;-68
2021/01/04 11:34:17;;;;;;;4.20;3.80;;;4.30;99.90;;;;;;5090148;28;20024;-68
2021/01/04 11:36:42;;;;;;;5.88;4.18;;;4.30;99.90;;;;;;5091256;28;20085;-68
2021/01/04 11:39:08;;;;;;;5.07;3.95;;;4.30;99.90;;;;;;5090963;28;20028;-68
2021/01/04 11:41:33;;;;;;;6.57;3.75;;;4.30;99.90;;;;;;5091148;28;20020;-68
2021/01/04 11:43:59;;;;;;;3.92;3.55;;;4.40;99.90;;;;;;5090385;28;20444;-69
2021/01/04 11:46:25;;;;;;;5.97;4.10;;;4.40;99.90;;;;;;5090818;28;20035;-68
2021/01/04 11:48:50;;;;;;;4.45;3.38;;;4.50;99.90;;;;;;5077515;28;20460;-68
2021/01/04 11:51:20;;;;;;;4.65;3.63;;;4.50;99.90;;;;;;5091632;28;20075;-68
2021/01/04 11:53:49;;;;;;;3.47;3.15;;;4.60;99.90;;;;;;5090345;28;20021;-69
2021/01/04 11:56:16;;;;;;;4.38;3.80;;;4.60;99.90;;;;;;5094072;28;20055;-69
2021/01/04 11:58:42;;;;;;;3.38;3.03;;;4.60;99.90;;;;;;5097323;28;20395;-68
2021/01/04 12:01:08;;;;;;;6.13;3.38;;;4.60;99.90;;;;;;5099584;28;20456;-68
2021/01/04 12:03:33;;;;;;;7.28;3.75;;;4.60;99.90;;;;;;5096711;28;20027;-68
2021/01/04 12:05:59;;;;;;;4.57;4.18;;;4.60;99.90;;;;;;5095416;28;20035;-68
2021/01/04 12:08:24;;;;;;;6.10;3.95;;;4.60;99.90;;;;;;5094342;28;20020;-69
2021/01/04 12:10:50;;;;;;;4.97;3.67;;;4.60;99.90;;;;;;5095386;28;20053;-68
2021/01/04 12:13:15;;;;;;;4.07;3.55;;;4.60;99.90;;;;;;5094932;28;20091;-68
2021/01/04 12:15:41;;;;;;;5.30;3.53;;;4.60;99.90;;;;;;5081003;28;20490;-68
2021/01/04 12:18:07;;;;;;;5.82;3.65;;;4.40;99.90;;;;;;5097154;28;20016;-68
2021/01/04 12:20:32;;;;;;;3.75;3.20;;;4.40;99.90;;;;;;5095569;28;20044;-68
2021/01/04 12:22:58;;;;;;;6.57;3.40;;;4.50;99.90;;;;;;5089849;28;20025;-68
2021/01/04 12:25:23;;;;;;;4.03;3.17;;;4.40;99.90;;;;;;5073121;28;20381;-68
2021/01/04 12:27:49;;;;;;;4.25;3.33;;;4.40;99.90;;;;;;5072265;28;20039;-68
2021/01/04 12:30:15;;;;;;;5.72;3.60;;;4.40;99.90;;;;;;5073167;28;20434;-70
2021/01/04 12:32:41;;;;;;;3.45;3.13;;;4.40;99.90;;;;;;5082378;28;20491;-68
2021/01/04 12:35:09;;;;;;;4.75;3.83;;;4.40;99.90;;;;;;5072618;28;20048;-70
2021/01/04 12:37:34;;;;;;;3.90;3.22;;;4.40;99.90;;;;;;5075694;28;20032;-69
2021/01/04 12:40:00;;;;;;;4.72;3.42;;;4.40;99.90;;;;;;5093891;28;20033;-69
2021/01/04 12:42:25;;;;;;;4.68;3.72;;;4.40;99.90;;;;;;5085254;28;20031;-68
2021/01/04 12:44:51;;;;;;;3.30;2.80;;;4.30;99.90;;;;;;5095184;28;20020;-68
2021/01/04 12:47:17;;;;;;;2.95;2.75;;;4.40;99.90;;;;;;5097845;28;20064;-68
2021/01/04 12:49:44;;;;;;;5.30;3.25;;;4.40;99.90;;;;;;5073760;28;20097;-68
2021/01/04 12:52:09;;;;;;;3.53;2.95;;;4.30;99.90;;;;;;5085470;28;20016;-68
2021/01/04 12:54:36;;;;;;;6.60;2.55;;;4.40;99.90;;;;;;5080050;28;20034;-68
2021/01/04 12:57:03;;;;;;;4.38;3.10;;;4.40;99.90;;;;;;5076500;28;21863;-68
2021/01/04 12:59:29;;;;;;;3.58;2.90;;;4.40;99.90;;;;;;5084829;28;20016;-68
2021/01/04 13:01:56;;;;;;;5.68;2.50;;;4.40;99.90;;;;;;5086234;28;20039;-68
2021/01/04 13:04:24;;;;;;;6.35;3.03;;;4.40;99.90;;;;;;5078131;28;20050;-68
2021/01/04 13:06:52;;;;;;;5.07;3.45;;;4.40;99.90;;;;;;5083032;28;20032;-68
2021/01/04 13:09:18;;;;;;;4.05;2.65;;;4.30;99.90;;;;;;5097387;27;20024;-68
2021/01/04 13:11:46;;;;;;;2.85;2.65;;;4.30;99.90;;;;;;5082552;28;20035;-68
2021/01/04 13:14:11;;;;;;;7.38;2.95;;;4.30;99.90;;;;;;5088611;28;20055;-68
2021/01/04 13:16:37;;;;;;;3.17;2.53;;;4.30;99.90;;;;;;5083245;28;20384;-68
2021/01/04 13:19:05;;;;;;;2.90;2.67;;;4.30;99.90;;;;;;5084080;28;20012;-68
2021/01/04 13:21:31;;;;;;;4.95;2.90;;;4.30;99.90;;;;;;5086619;28;20044;-66
2021/01/04 13:23:56;;;;;;;3.63;2.88;;;4.30;99.90;;;;;;5081811;28;20103;-66
2021/01/04 13:26:22;;;;;;;4.07;3.25;;;4.20;99.90;;;;;;5084609;28;20468;-67
2021/01/04 13:28:48;;;;;;;3.65;2.47;;;4.20;99.90;;;;;;5086353;28;20035;-67
2021/01/04 13:31:22;;;;;;;4.05;2.92;;;4.20;99.90;;;;;;5080908;28;20084;-67
2021/01/04 13:33:47;;;;;;;2.88;2.58;;;4.20;99.90;;;;;;5089261;28;20024;-67
2021/01/04 13:36:13;;;;;;;5.28;2.63;;;4.10;99.90;;;;;;5085811;28;20513;-67
2021/01/04 13:38:40;;;;;;;4.43;2.75;;;4.20;99.90;;;;;;5085917;28;20385;-68
2021/01/04 13:41:05;;;;;;;5.75;3.08;;;4.10;99.90;;;;;;5088686;28;20028;-67